Time;durP1;ratioP1;P1;durP2;ratioP2;P2;SDS_P1;SDS_P2;PMS_P1;PMS_P2;Temp;Humidity;BMP_temperature;BMP_pressure;BME280_temperature;BME280_humidity;BME280_pressure;Samples;Min_cycle;Max_cycle;Signal;HPM_P1;HPM_P2
2021/09/17 00:02:23;;;;;;;4.82;3.65;;;;;;;;;;5036206;28;20049;-58
2021/09/17 00:04:52;;;;;;;2.70;2.30;;;;;;;;;;5035908;28;20071;-58
2021/09/17 00:07:18;;;;;;;5.03;3.17;;;;;;;;;;5035673;28;20033;-59
2021/09/17 00:09:44;;;;;;;5.68;2.75;;;;;;;;;;5035372;28;20025;-59
2021/09/17 00:12:10;;;;;;;3.33;2.83;;;;;;;;;;5018424;28;20027;-58
2021/09/17 00:14:37;;;;;;;4.45;3.15;;;;;;;;;;5035383;28;20111;-59
2021/09/17 00:17:05;;;;;;;3.67;2.40;;;;;;;;;;5035305;28;20029;-58
2021/09/17 00:19:31;;;;;;;3.47;2.60;;;;;;;;;;5018611;28;20447;-59
2021/09/17 00:21:58;;;;;;;3.72;2.53;;;;;;;;;;5017429;28;20472;-58
2021/09/17 00:24:24;;;;;;;4.50;3.03;;;;;;;;;;5017295;28;20140;-58
2021/09/17 00:26:50;;;;;;;4.07;3.00;;;;;;;;;;5035220;28;20511;-58
2021/09/17 00:29:15;;;;;;;5.68;2.47;;;;;;;;;;5017492;28;20116;-58
2021/09/17 00:31:42;;;;;;;4.00;2.80;;;;;;;;;;5017525;28;20121;-58
2021/09/17 00:34:09;;;;;;;2.75;2.25;;;;;;;;;;5035399;28;20439;-58
2021/09/17 00:36:35;;;;;;;4.10;2.78;;;;;;;;;;5018218;28;20125;-59
2021/09/17 00:39:01;;;;;;;5.85;2.78;;;;;;;;;;5034762;28;20116;-59
2021/09/17 00:41:27;;;;;;;4.47;2.80;;;;;;;;;;5034993;28;20029;-58
2021/09/17 00:43:53;;;;;;;5.70;2.92;;;;;;;;;;5018114;28;20066;-58
2021/09/17 00:46:19;;;;;;;3.45;2.65;;;;;;;;;;5034819;28;20061;-59
2021/09/17 00:48:45;;;;;;;2.78;2.15;;;;;;;;;;5034863;28;20485;-58
2021/09/17 00:51:11;;;;;;;3.33;2.63;;;;;;;;;;5034841;28;20056;-58
2021/09/17 00:53:37;;;;;;;3.67;3.08;;;;;;;;;;5035332;28;20104;-58
2021/09/17 00:56:04;;;;;;;3.65;2.70;;;;;;;;;;5034858;28;20033;-58
2021/09/17 00:58:30;;;;;;;4.45;2.80;;;;;;;;;;5034661;28;20105;-59
2021/09/17 01:00:56;;;;;;;3.70;2.60;;;;;;;;;;5034718;28;20040;-59
2021/09/17 01:03:22;;;;;;;3.80;2.45;;;;;;;;;;5017253;28;20025;-58
2021/09/17 01:05:48;;;;;;;3.55;2.65;;;;;;;;;;5034528;28;20061;-59
2021/09/17 01:08:14;;;;;;;5.20;3.20;;;;;;;;;;5035063;28;20029;-58
2021/09/17 01:10:42;;;;;;;3.47;2.97;;;;;;;;;;5026915;28;20021;-58
2021/09/17 01:13:08;;;;;;;4.00;2.83;;;;;;;;;;5016415;28;20056;-59
2021/09/17 01:15:34;;;;;;;4.53;3.13;;;;;;;;;;5016665;28;20080;-58
2021/09/17 01:18:00;;;;;;;4.63;2.92;;;;;;;;;;5034650;28;20037;-59
2021/09/17 01:20:26;;;;;;;3.50;3.20;;;;;;;;;;5034613;28;20467;-58
2021/09/17 01:22:55;;;;;;;4.03;3.30;;;;;;;;;;5016999;28;20420;-59
2021/09/17 01:25:22;;;;;;;5.82;3.03;;;;;;;;;;5034137;28;20091;-58
2021/09/17 01:27:49;;;;;;;4.20;3.38;;;;;;;;;;5034377;28;20028;-58
2021/09/17 01:30:19;;;;;;;6.35;3.75;;;;;;;;;;5034161;28;20025;-58
2021/09/17 01:32:45;;;;;;;2.83;2.40;;;;;;;;;;5016965;28;20021;-58
2021/09/17 01:35:13;;;;;;;4.68;3.20;;;;;;;;;;5033940;28;20033;-59
2021/09/17 01:37:39;;;;;;;5.10;3.90;;;;;;;;;;5034794;28;20491;-59
2021/09/17 01:40:06;;;;;;;4.03;2.63;;;;;;;;;;5034007;28;20111;-58
2021/09/17 01:42:32;;;;;;;5.88;3.42;;;;;;;;;;5015984;28;20029;-59
2021/09/17 01:44:58;;;;;;;3.95;2.72;;;;;;;;;;5034063;28;20037;-58
2021/09/17 01:47:24;;;;;;;3.70;2.97;;;;;;;;;;5016720;28;20022;-58
2021/09/17 01:49:50;;;;;;;4.15;3.50;;;;;;;;;;5034054;28;20099;-58
2021/09/17 01:52:16;;;;;;;3.83;2.65;;;;;;;;;;5033564;28;20036;-58
2021/09/17 01:54:43;;;;;;;4.53;3.38;;;;;;;;;;5016113;28;20041;-59
2021/09/17 01:57:09;;;;;;;6.50;3.83;;;;;;;;;;5033724;28;20037;-58
2021/09/17 01:59:35;;;;;;;4.32;3.92;;;;;;;;;;5033671;28;20026;-58
2021/09/17 02:02:01;;;;;;;4.80;3.45;;;;;;;;;;5034277;28;20034;-59
2021/09/17 02:04:27;;;;;;;5.22;4.28;;;;;;;;;;5033595;28;20038;-58
2021/09/17 02:06:53;;;;;;;6.22;3.50;;;;;;;;;;5033659;28;20079;-58
2021/09/17 02:09:19;;;;;;;3.83;3.10;;;;;;;;;;5016184;28;20025;-58
2021/09/17 02:11:45;;;;;;;5.72;4.32;;;;;;;;;;5015785;28;20028;-58
2021/09/17 02:14:11;;;;;;;4.43;4.03;;;;;;;;;;5015374;28;20042;-58
2021/09/17 02:16:38;;;;;;;5.35;4.13;;;;;;;;;;5015336;28;20044;-59
2021/09/17 02:19:04;;;;;;;5.32;4.60;;;;;;;;;;5016414;28;20351;-58
2021/09/17 02:21:31;;;;;;;6.15;4.68;;;;;;;;;;5034026;28;20030;-59
2021/09/17 02:23:57;;;;;;;6.65;5.35;;;;;;;;;;5035196;28;20419;-59
2021/09/17 02:26:23;;;;;;;5.00;4.50;;;;;;;;;;5037489;28;20044;-59
2021/09/17 02:28:51;;;;;;;6.68;5.07;;;;;;;;;;5019456;28;20121;-59
2021/09/17 02:31:17;;;;;;;5.05;3.95;;;;;;;;;;5020491;28;20033;-59
2021/09/17 02:33:43;;;;;;;6.63;5.28;;;;;;;;;;5037580;28;20452;-59
2021/09/17 02:36:09;;;;;;;7.18;6.03;;;;;;;;;;5019908;28;20061;-59
2021/09/17 02:38:35;;;;;;;6.30;4.93;;;;;;;;;;5037860;28;20037;-58
2021/09/17 02:41:02;;;;;;;6.47;4.80;;;;;;;;;;5019246;28;20028;-58
2021/09/17 02:43:28;;;;;;;8.38;5.68;;;;;;;;;;5037316;28;20022;-58
2021/09/17 02:45:54;;;;;;;6.03;5.43;;;;;;;;;;5037669;28;20131;-58
2021/09/17 02:48:20;;;;;;;7.55;6.20;;;;;;;;;;5037593;28;20025;-58
2021/09/17 02:50:46;;;;;;;7.63;5.90;;;;;;;;;;5036997;28;20031;-58
2021/09/17 02:53:12;;;;;;;7.93;5.88;;;;;;;;;;5037029;28;20029;-59
2021/09/17 02:55:38;;;;;;;7.78;6.05;;;;;;;;;;5036992;28;20030;-58
2021/09/17 02:58:05;;;;;;;8.35;6.03;;;;;;;;;;5019762;28;20026;-58
2021/09/17 03:00:31;;;;;;;7.00;5.85;;;;;;;;;;5037087;28;20083;-59
2021/09/17 03:02:57;;;;;;;6.50;4.97;;;;;;;;;;5019454;28;20037;-58
2021/09/17 03:05:23;;;;;;;7.40;5.03;;;;;;;;;;5019041;28;20396;-58
2021/09/17 03:07:49;;;;;;;8.13;6.22;;;;;;;;;;5036532;28;20467;-58
2021/09/17 03:10:15;;;;;;;4.88;4.38;;;;;;;;;;5019620;28;20068;-58
2021/09/17 03:12:41;;;;;;;5.57;4.82;;;;;;;;;;5019620;28;20046;-59
2021/09/17 03:15:07;;;;;;;5.85;4.80;;;;;;;;;;5036722;28;20037;-58
2021/09/17 03:17:36;;;;;;;5.85;5.25;;;;;;;;;;5019077;28;20391;-58
2021/09/17 03:20:02;;;;;;;8.63;6.55;;;;;;;;;;5036700;28;20503;-59
2021/09/17 03:22:28;;;;;;;8.25;6.43;;;;;;;;;;5037206;28;20025;-59
2021/09/17 03:24:54;;;;;;;7.35;5.63;;;;;;;;;;5036376;28;20382;-58
2021/09/17 03:27:20;;;;;;;5.50;4.63;;;;;;;;;;5036369;28;20026;-59
2021/09/17 03:29:46;;;;;;;7.93;6.40;;;;;;;;;;5036298;28;20030;-59
2021/09/17 03:32:12;;;;;;;6.82;5.78;;;;;;;;;;5018379;28;20033;-58
2021/09/17 03:34:38;;;;;;;6.47;5.80;;;;;;;;;;5036200;28;20030;-58
2021/09/17 03:37:04;;;;;;;5.93;5.35;;;;;;;;;;5018162;28;20041;-58
2021/09/17 03:39:30;;;;;;;6.57;5.45;;;;;;;;;;5019040;28;20444;-59
2021/09/17 03:41:56;;;;;;;6.97;5.30;;;;;;;;;;5018216;28;20128;-59
2021/09/17 03:44:22;;;;;;;11.32;6.80;;;;;;;;;;5018306;28;20056;-58
2021/09/17 03:46:48;;;;;;;7.65;6.10;;;;;;;;;;5036161;28;20076;-59
2021/09/17 03:49:14;;;;;;;6.82;5.47;;;;;;;;;;5036075;28;20022;-59
2021/09/17 03:51:40;;;;;;;5.72;5.13;;;;;;;;;;5036075;28;20471;-59
2021/09/17 03:54:06;;;;;;;8.95;4.93;;;;;;;;;;5036109;28;20479;-59
2021/09/17 03:56:32;;;;;;;6.05;5.43;;;;;;;;;;5018262;28;20091;-59
2021/09/17 03:59:01;;;;;;;5.88;5.03;;;;;;;;;;5035965;28;20055;-59
2021/09/17 04:01:27;;;;;;;7.13;6.43;;;;;;;;;;5036076;28;20032;-59
2021/09/17 04:03:53;;;;;;;8.80;6.25;;;;;;;;;;5036617;28;20176;-59
2021/09/17 04:06:19;;;;;;;7.35;5.75;;;;;;;;;;5036183;28;20034;-59
2021/09/17 04:08:45;;;;;;;9.73;6.40;;;;;;;;;;5035663;28;20466;-59
2021/09/17 04:11:11;;;;;;;7.85;6.30;;;;;;;;;;5035315;28;20468;-58
2021/09/17 04:13:37;;;;;;;8.07;6.05;;;;;;;;;;5017667;28;20561;-58
2021/09/17 04:16:03;;;;;;;7.78;5.38;;;;;;;;;;5035550;28;20029;-58
2021/09/17 04:18:29;;;;;;;8.25;6.55;;;;;;;;;;5035588;28;20025;-59
2021/09/17 04:20:58;;;;;;;7.20;5.80;;;;;;;;;;5035251;28;20077;-59
2021/09/17 04:23:24;;;;;;;7.47;6.70;;;;;;;;;;5036083;28;20368;-59
2021/09/17 04:25:50;;;;;;;7.90;5.65;;;;;;;;;;5018153;28;20033;-59
2021/09/17 04:28:16;;;;;;;7.63;5.88;;;;;;;;;;5035367;28;20033;-59
2021/09/17 04:30:42;;;;;;;10.00;6.15;;;;;;;;;;5035255;28;20033;-58
2021/09/17 04:33:14;;;;;;;8.30;5.18;;;;;;;;;;5035309;28;20031;-59
2021/09/17 04:35:40;;;;;;;9.18;5.95;;;;;;;;;;5035292;28;20026;-58
2021/09/17 04:38:06;;;;;;;6.55;5.90;;;;;;;;;;5035461;28;20033;-58
2021/09/17 04:40:32;;;;;;;7.63;5.95;;;;;;;;;;5035129;28;20025;-58
2021/09/17 04:42:58;;;;;;;6.53;5.93;;;;;;;;;;5035458;28;20487;-59
2021/09/17 04:45:25;;;;;;;7.22;5.60;;;;;;;;;;5034933;28;20044;-58
2021/09/17 04:47:51;;;;;;;6.95;6.25;;;;;;;;;;5034337;28;20025;-59
2021/09/17 04:50:17;;;;;;;6.45;5.72;;;;;;;;;;5035478;28;20454;-58
2021/09/17 04:52:47;;;;;;;13.75;7.28;;;;;;;;;;5035513;28;20033;-58
2021/09/17 04:55:13;;;;;;;7.70;5.90;;;;;;;;;;5017739;28;20029;-58
2021/09/17 04:57:39;;;;;;;6.43;5.60;;;;;;;;;;5035275;28;20030;-59
2021/09/17 05:00:09;;;;;;;6.18;5.57;;;;;;;;;;5016610;28;20037;-58
2021/09/17 05:02:35;;;;;;;7.28;5.38;;;;;;;;;;5033956;28;20037;-59
2021/09/17 05:05:01;;;;;;;7.03;5.50;;;;;;;;;;5034655;28;20112;-59
2021/09/17 05:07:27;;;;;;;7.15;5.38;;;;;;;;;;5034628;28;20025;-59
2021/09/17 05:09:53;;;;;;;11.32;5.63;;;;;;;;;;5034163;28;20036;-58
2021/09/17 05:12:19;;;;;;;6.90;5.65;;;;;;;;;;5034837;28;20025;-59
2021/09/17 05:14:45;;;;;;;6.78;4.93;;;;;;;;;;5016920;28;20036;-59
2021/09/17 05:17:11;;;;;;;6.43;5.57;;;;;;;;;;5034910;28;20061;-59
2021/09/17 05:19:40;;;;;;;10.60;4.78;;;;;;;;;;5034281;28;20053;-59
2021/09/17 05:22:06;;;;;;;8.15;5.78;;;;;;;;;;5016313;28;20034;-58
2021/09/17 05:24:37;;;;;;;5.32;4.63;;;;;;;;;;5016402;28;20033;-58
2021/09/17 05:27:03;;;;;;;10.50;5.45;;;;;;;;;;5017115;28;20018;-58
2021/09/17 05:29:31;;;;;;;6.10;5.50;;;;;;;;;;5034115;28;20475;-58
2021/09/17 05:31:57;;;;;;;7.18;5.63;;;;;;;;;;5016330;28;20025;-58
2021/09/17 05:34:23;;;;;;;6.60;5.45;;;;;;;;;;5033984;28;20032;-58
2021/09/17 05:36:49;;;;;;;8.00;5.40;;;;;;;;;;5033900;28;20022;-58
2021/09/17 05:39:15;;;;;;;6.00;5.30;;;;;;;;;;5016190;28;20055;-58
2021/09/17 05:41:41;;;;;;;7.30;5.93;;;;;;;;;;5014957;28;20033;-58
2021/09/17 05:44:07;;;;;;;7.32;5.47;;;;;;;;;;5033909;28;20064;-58
2021/09/17 05:46:34;;;;;;;6.60;5.68;;;;;;;;;;5033954;28;20037;-58
2021/09/17 05:49:00;;;;;;;6.35;5.28;;;;;;;;;;5033823;28;20036;-58
2021/09/17 05:51:25;;;;;;;6.07;5.05;;;;;;;;;;5034071;28;20084;-58
2021/09/17 05:53:51;;;;;;;6.13;5.25;;;;;;;;;;5034238;28;20349;-58
2021/09/17 05:56:17;;;;;;;6.47;4.68;;;;;;;;;;5033642;28;20029;-58
2021/09/17 05:58:43;;;;;;;6.13;5.43;;;;;;;;;;5015678;28;20025;-58
2021/09/17 06:01:09;;;;;;;10.38;6.10;;;;;;;;;;5034050;28;20025;-58
2021/09/17 06:03:35;;;;;;;6.65;5.60;;;;;;;;;;5033949;28;20033;-58
2021/09/17 06:06:01;;;;;;;8.77;7.60;;;;;;;;;;5033463;28;20383;-58
2021/09/17 06:08:27;;;;;;;10.15;9.10;;;;;;;;;;5015880;28;20053;-58
2021/09/17 06:10:53;;;;;;;8.77;7.97;;;;;;;;;;5015822;28;20416;-58
2021/09/17 06:13:19;;;;;;;9.25;7.53;;;;;;;;;;5033180;28;20056;-58
2021/09/17 06:15:48;;;;;;;8.00;6.65;;;;;;;;;;5033469;28;20034;-58
2021/09/17 06:18:14;;;;;;;7.68;6.88;;;;;;;;;;5033519;28;20105;-58
2021/09/17 06:20:40;;;;;;;7.65;6.20;;;;;;;;;;5015791;28;20464;-58
2021/09/17 06:23:06;;;;;;;10.27;6.30;;;;;;;;;;5016400;28;20448;-58
2021/09/17 06:25:32;;;;;;;7.07;5.63;;;;;;;;;;5033267;28;20030;-59
2021/09/17 06:27:58;;;;;;;7.60;6.35;;;;;;;;;;5034122;28;20420;-58
2021/09/17 06:30:24;;;;;;;8.43;7.25;;;;;;;;;;5032768;28;20075;-58
2021/09/17 06:32:50;;;;;;;7.95;6.60;;;;;;;;;;5000195;28;20026;-58
2021/09/17 06:35:16;;;;;;;8.43;6.60;;;;;;;;;;5033071;28;20034;-58
2021/09/17 06:37:50;;;;;;;9.82;6.45;;;;;;;;;;5032925;28;20028;-58
2021/09/17 06:40:23;;;;;;;7.30;6.63;;;;;;;;;;5033441;28;20040;-58
2021/09/17 06:42:49;;;;;;;9.38;6.80;;;;;;;;;;5000213;28;20452;-58
2021/09/17 06:45:15;;;;;;;7.50;6.43;;;;;;;;;;5033107;28;20033;-58
2021/09/17 06:47:48;;;;;;;8.55;6.63;;;;;;;;;;5033143;28;20522;-58
2021/09/17 06:50:15;;;;;;;10.40;8.48;;;;;;;;;;5033212;28;20034;-58
2021/09/17 06:52:47;;;;;;;7.78;6.97;;;;;;;;;;5033251;28;20087;-59
2021/09/17 06:55:15;;;;;;;9.07;6.93;;;;;;;;;;5033399;28;20052;-58
2021/09/17 06:57:46;;;;;;;8.38;6.72;;;;;;;;;;5032935;28;20112;-58
2021/09/17 07:00:14;;;;;;;6.93;6.22;;;;;;;;;;5032907;28;20060;-58
2021/09/17 07:02:39;;;;;;;6.65;5.90;;;;;;;;;;5033310;28;20415;-57
2021/09/17 07:05:09;;;;;;;6.63;5.97;;;;;;;;;;5032850;28;20065;-57
2021/09/17 07:07:35;;;;;;;6.78;5.07;;;;;;;;;;5032619;28;20108;-57
2021/09/17 07:10:01;;;;;;;10.55;6.25;;;;;;;;;;5032352;28;20036;-57
2021/09/17 07:12:27;;;;;;;8.02;6.55;;;;;;;;;;5036337;28;20026;-58
2021/09/17 07:14:53;;;;;;;9.38;7.00;;;;;;;;;;5037108;28;20029;-57
2021/09/17 07:17:19;;;;;;;7.53;6.82;;;;;;;;;;5035816;28;20555;-57
2021/09/17 07:19:45;;;;;;;7.35;6.57;;;;;;;;;;5036709;28;20057;-58
2021/09/17 07:22:11;;;;;;;10.18;7.95;;;;;;;;;;5036909;28;20036;-57
2021/09/17 07:24:37;;;;;;;9.90;8.25;;;;;;;;;;5036473;28;20037;-57
2021/09/17 07:27:03;;;;;;;10.40;7.72;;;;;;;;;;5036589;28;20060;-57
2021/09/17 07:29:32;;;;;;;8.85;7.60;;;;;;;;;;5037196;28;20025;-57
2021/09/17 07:31:58;;;;;;;9.88;7.40;;;;;;;;;;5019313;28;20069;-57
2021/09/17 07:34:24;;;;;;;12.07;8.73;;;;;;;;;;5018622;28;20029;-57
2021/09/17 07:36:50;;;;;;;9.10;8.02;;;;;;;;;;5036618;28;20029;-57
2021/09/17 07:39:16;;;;;;;9.75;8.75;;;;;;;;;;5036198;28;20029;-57
2021/09/17 07:41:46;;;;;;;9.95;8.02;;;;;;;;;;5035995;28;20543;-57
2021/09/17 07:44:15;;;;;;;13.80;9.07;;;;;;;;;;5018544;28;20117;-57
2021/09/17 07:46:41;;;;;;;7.40;6.63;;;;;;;;;;5018418;28;20077;-57
2021/09/17 07:49:07;;;;;;;10.38;7.90;;;;;;;;;;5036116;28;20057;-57
2021/09/17 07:51:33;;;;;;;10.23;8.57;;;;;;;;;;5019074;28;20025;-57
2021/09/17 07:53:59;;;;;;;9.80;8.00;;;;;;;;;;5018854;28;20064;-57
2021/09/17 07:56:25;;;;;;;15.20;7.05;;;;;;;;;;5036012;28;20053;-57
2021/09/17 07:58:51;;;;;;;8.45;7.65;;;;;;;;;;5035914;28;20057;-57
2021/09/17 08:01:17;;;;;;;8.43;7.47;;;;;;;;;;5018156;28;20108;-58
2021/09/17 08:03:43;;;;;;;14.32;9.45;;;;;;;;;;5035784;28;20030;-57
2021/09/17 08:06:10;;;;;;;14.00;8.70;;;;;;;;;;5035720;28;20030;-58
2021/09/17 08:08:36;;;;;;;11.60;8.40;;;;;;;;;;5018300;28;20375;-58
2021/09/17 08:11:02;;;;;;;10.52;8.57;;;;;;;;;;5018535;28;20040;-58
2021/09/17 08:13:31;;;;;;;19.83;9.27;;;;;;;;;;5018025;28;20049;-58
2021/09/17 08:15:57;;;;;;;9.48;8.15;;;;;;;;;;5018328;28;20030;-58
2021/09/17 08:18:25;;;;;;;11.30;8.98;;;;;;;;;;5018289;28;20460;-58
2021/09/17 08:20:52;;;;;;;9.38;8.48;;;;;;;;;;5018618;28;20060;-58
2021/09/17 08:23:21;;;;;;;9.07;7.97;;;;;;;;;;5017345;28;20022;-58
2021/09/17 08:25:50;;;;;;;12.90;8.53;;;;;;;;;;5035756;28;20037;-58
2021/09/17 08:28:16;;;;;;;9.60;8.70;;;;;;;;;;5017591;28;20025;-58
2021/09/17 08:30:42;;;;;;;8.15;7.35;;;;;;;;;;5017617;28;20026;-58
2021/09/17 08:33:09;;;;;;;9.98;8.00;;;;;;;;;;5036179;28;20021;-58
2021/09/17 08:35:35;;;;;;;9.85;7.95;;;;;;;;;;5017620;28;20039;-58
2021/09/17 08:38:01;;;;;;;9.93;8.82;;;;;;;;;;5017515;28;20056;-58
2021/09/17 08:40:30;;;;;;;9.30;8.38;;;;;;;;;;5017155;28;20390;-58
2021/09/17 08:42:59;;;;;;;8.13;7.32;;;;;;;;;;5034929;28;20482;-58
2021/09/17 08:45:25;;;;;;;12.00;9.10;;;;;;;;;;5017862;28;20073;-58
2021/09/17 08:47:52;;;;;;;10.23;8.38;;;;;;;;;;5035076;28;20061;-58
2021/09/17 08:50:19;;;;;;;16.05;9.52;;;;;;;;;;5035345;28;20044;-58
2021/09/17 08:52:48;;;;;;;10.93;9.00;;;;;;;;;;5035876;28;20037;-58
2021/09/17 08:55:14;;;;;;;11.85;8.60;;;;;;;;;;5001928;28;20060;-58
2021/09/17 08:57:44;;;;;;;9.02;8.13;;;;;;;;;;5034787;28;20026;-58
2021/09/17 09:00:30;;;;;;;12.15;8.63;;;;;;;;;;5017146;28;20029;-58
2021/09/17 09:03:00;;;;;;;8.45;7.53;;;;;;;;;;5035041;28;20025;-58
2021/09/17 09:05:27;;;;;;;10.35;8.50;;;;;;;;;;5034588;28;20038;-58
2021/09/17 09:07:53;;;;;;;11.77;7.50;;;;;;;;;;5034551;28;20022;-58
2021/09/17 09:10:19;;;;;;;8.73;7.82;;;;;;;;;;5016924;28;20491;-58
2021/09/17 09:12:47;;;;;;;9.25;7.40;;;;;;;;;;5034758;28;20049;-58
2021/09/17 09:15:13;;;;;;;15.05;9.05;;;;;;;;;;5034815;28;20419;-58
2021/09/17 09:17:39;;;;;;;9.00;7.53;;;;;;;;;;5034926;28;20022;-58
2021/09/17 09:20:25;;;;;;;9.18;8.07;;;;;;;;;;5034699;28;20112;-58
2021/09/17 09:23:06;;;;;;;9.13;7.57;;;;;;;;;;5034645;28;20359;-59
2021/09/17 09:25:32;;;;;;;9.23;8.32;;;;;;;;;;5034247;28;20038;-58
2021/09/17 09:28:16;;;;;;;10.85;9.85;;;;;;;;;;5034880;28;20026;-58
2021/09/17 09:30:42;;;;;;;9.75;8.23;;;;;;;;;;5033983;28;20021;-58
2021/09/17 09:33:21;;;;;;;11.25;8.40;;;;;;;;;;5016777;28;20040;-58
2021/09/17 09:35:56;;;;;;;9.18;8.27;;;;;;;;;;5016530;28;20080;-58
2021/09/17 09:38:41;;;;;;;9.07;8.10;;;;;;;;;;5034149;28;20076;-58
2021/09/17 09:41:09;;;;;;;13.73;9.35;;;;;;;;;;5034102;28;20032;-58
2021/09/17 09:43:36;;;;;;;9.77;8.38;;;;;;;;;;5034398;28;20022;-58
2021/09/17 09:46:24;;;;;;;8.95;8.05;;;;;;;;;;5033874;28;20069;-58
2021/09/17 09:48:59;;;;;;;9.10;7.63;;;;;;;;;;5033886;28;20125;-58
2021/09/17 09:51:26;;;;;;;8.18;7.38;;;;;;;;;;5016534;28;20021;-58
2021/09/17 09:53:52;;;;;;;8.25;6.57;;;;;;;;;;5034803;28;20137;-58
2021/09/17 09:56:21;;;;;;;8.40;6.85;;;;;;;;;;5034224;28;20025;-58
2021/09/17 09:58:49;;;;;;;8.40;7.50;;;;;;;;;;5034116;28;20025;-58
2021/09/17 10:01:17;;;;;;;7.68;6.90;;;;;;;;;;5033777;28;20321;-58
2021/09/17 10:03:43;;;;;;;7.45;6.75;;;;;;;;;;5033866;28;20464;-58
2021/09/17 10:06:16;;;;;;;5.97;5.35;;;;;;;;;;5015884;28;20033;-58
2021/09/17 10:08:42;;;;;;;5.55;4.88;;;;;;;;;;5033907;28;20487;-58
2021/09/17 10:11:09;;;;;;;6.55;4.70;;;;;;;;;;5016062;28;20021;-58
2021/09/17 10:13:38;;;;;;;6.82;5.95;;;;;;;;;;5033510;28;20080;-58
2021/09/17 10:16:05;;;;;;;7.55;5.25;;;;;;;;;;5033491;28;20032;-58
2021/09/17 10:18:33;;;;;;;6.85;5.45;;;;;;;;;;5033535;28;20026;-58
2021/09/17 10:20:59;;;;;;;5.88;5.07;;;;;;;;;;5033314;28;20021;-58
2021/09/17 10:23:30;;;;;;;7.00;5.55;;;;;;;;;;5033333;28;20045;-58
2021/09/17 10:25:56;;;;;;;;;;;;;;;;;;5033710;28;20034;-58
2021/09/17 10:28:22;;;;;;;6.95;5.68;;;;;;;;;;5015998;28;19912;-58
2021/09/17 10:30:50;;;;;;;7.60;6.00;;;;;;;;;;5033466;28;20083;-58
2021/09/17 10:33:24;;;;;;;5.97;5.00;;;;;;;;;;5034074;28;20040;-58
2021/09/17 10:35:51;;;;;;;8.68;5.55;;;;;;;;;;5033424;28;20045;-58
2021/09/17 10:38:21;;;;;;;5.63;4.88;;;;;;;;;;5033369;28;20021;-58
2021/09/17 10:40:53;;;;;;;6.38;5.05;;;;;;;;;;5015936;28;20096;-58
2021/09/17 10:43:23;;;;;;;4.45;3.30;;;;;;;;;;5033758;28;20020;-58
2021/09/17 10:45:57;;;;;;;4.93;3.50;;;;;;;;;;5034245;28;20044;-58
2021/09/17 10:48:24;;;;;;;4.50;3.22;;;;;;;;;;5037348;28;20107;-58
2021/09/17 10:50:53;;;;;;;3.17;2.47;;;;;;;;;;5037577;28;20076;-58
2021/09/17 10:53:38;;;;;;;3.67;2.72;;;;;;;;;;5037515;28;20022;-58
2021/09/17 10:56:04;;;;;;;3.45;2.60;;;;;;;;;;5037194;28;20033;-58
2021/09/17 10:58:34;;;;;;;3.95;1.98;;;;;;;;;;5019855;28;20052;-58
2021/09/17 11:01:05;;;;;;;3.33;2.08;;;;;;;;;;5019119;28;20471;-58
2021/09/17 11:03:48;;;;;;;2.83;1.95;;;;;;;;;;5020012;28;20356;-58
2021/09/17 11:06:37;;;;;;;3.80;2.75;;;;;;;;;;5037072;28;20033;-58
2021/09/17 11:09:04;;;;;;;4.35;2.65;;;;;;;;;;5019992;28;20028;-58
2021/09/17 11:11:41;;;;;;;5.22;2.72;;;;;;;;;;5037587;28;20068;-58
2021/09/17 11:14:09;;;;;;;4.05;2.97;;;;;;;;;;5036342;28;20533;-58
2021/09/17 11:16:35;;;;;;;3.03;2.60;;;;;;;;;;5018983;28;20030;-58
2021/09/17 11:19:07;;;;;;;2.85;2.28;;;;;;;;;;5036773;28;20076;-59
2021/09/17 11:21:34;;;;;;;4.75;2.60;;;;;;;;;;5037178;28;20080;-58
2021/09/17 11:24:00;;;;;;;4.30;2.92;;;;;;;;;;5036961;28;20108;-58
2021/09/17 11:26:32;;;;;;;2.55;1.90;;;;;;;;;;5036456;28;20060;-58
2021/09/17 11:28:57;;;;;;;2.38;1.65;;;;;;;;;;5035893;28;20040;-58
2021/09/17 11:31:31;;;;;;;3.95;1.60;;;;;;;;;;5018728;28;20021;-58
2021/09/17 11:33:58;;;;;;;2.78;1.80;;;;;;;;;;5036464;28;20026;-59
2021/09/17 11:36:43;;;;;;;4.15;1.92;;;;;;;;;;5036426;28;20029;-59
2021/09/17 11:39:19;;;;;;;3.88;2.08;;;;;;;;;;5036700;28;20049;-58
2021/09/17 11:41:51;;;;;;;3.00;1.90;;;;;;;;;;5036274;28;20057;-58
2021/09/17 11:44:34;;;;;;;3.30;2.33;;;;;;;;;;5036423;28;20459;-58
2021/09/17 11:47:04;;;;;;;4.28;2.60;;;;;;;;;;5036706;28;20104;-58
2021/09/17 11:49:30;;;;;;;3.33;2.90;;;;;;;;;;5036196;28;20030;-59
2021/09/17 11:52:00;;;;;;;4.22;2.88;;;;;;;;;;5036119;28;20104;-59
2021/09/17 11:54:27;;;;;;;3.55;2.85;;;;;;;;;;5036115;28;20021;-59
2021/09/17 11:56:59;;;;;;;3.55;2.92;;;;;;;;;;5035589;28;20361;-59
2021/09/17 11:59:51;;;;;;;4.43;2.97;;;;;;;;;;5036338;28;20025;-59
2021/09/17 12:02:17;;;;;;;4.85;3.58;;;;;;;;;;5033779;28;20033;-59
2021/09/17 12:04:56;;;;;;;4.22;3.00;;;;;;;;;;5036389;28;20139;-59
2021/09/17 12:07:22;;;;;;;2.92;2.45;;;;;;;;;;5018059;28;20076;-59
2021/09/17 12:09:48;;;;;;;4.82;2.72;;;;;;;;;;5035866;28;20036;-59
2021/09/17 12:12:17;;;;;;;5.88;3.00;;;;;;;;;;5035812;28;20017;-59
2021/09/17 12:14:55;;;;;;;3.92;2.63;;;;;;;;;;5018308;28;20096;-59
2021/09/17 12:17:21;;;;;;;4.28;2.70;;;;;;;;;;5036209;28;20411;-59
2021/09/17 12:19:58;;;;;;;5.95;3.13;;;;;;;;;;5017987;28;20517;-60
2021/09/17 12:22:37;;;;;;;3.88;2.60;;;;;;;;;;5035993;28;20061;-59
2021/09/17 12:25:03;;;;;;;4.15;3.28;;;;;;;;;;5035277;28;20038;-59
2021/09/17 12:27:30;;;;;;;3.17;2.40;;;;;;;;;;5018049;28;20020;-59
2021/09/17 12:29:57;;;;;;;2.92;2.28;;;;;;;;;;5035989;28;20022;-59
2021/09/17 12:32:23;;;;;;;3.17;2.00;;;;;;;;;;5035749;28;20028;-60
2021/09/17 12:35:03;;;;;;;3.03;1.90;;;;;;;;;;5035239;28;20387;-60
2021/09/17 12:37:29;;;;;;;3.38;1.77;;;;;;;;;;5035296;28;20017;-60
2021/09/17 12:40:07;;;;;;;2.72;2.28;;;;;;;;;;5035263;28;20040;-59
2021/09/17 12:42:33;;;;;;;3.08;1.60;;;;;;;;;;5035494;28;20033;-60
2021/09/17 12:45:01;;;;;;;2.25;1.33;;;;;;;;;;5035244;28;20372;-59
2021/09/17 12:47:28;;;;;;;2.45;1.63;;;;;;;;;;5035364;28;20063;-60
2021/09/17 12:50:07;;;;;;;3.38;1.98;;;;;;;;;;5035225;28;20021;-59
2021/09/17 12:52:36;;;;;;;2.53;1.95;;;;;;;;;;5035181;28;20021;-59
2021/09/17 12:55:02;;;;;;;2.95;2.10;;;;;;;;;;5034661;28;20026;-59
2021/09/17 12:57:29;;;;;;;3.20;2.03;;;;;;;;;;5034809;28;20030;-59
2021/09/17 13:00:04;;;;;;;2.88;2.38;;;;;;;;;;5001760;28;20053;-59
2021/09/17 13:02:33;;;;;;;2.08;1.38;;;;;;;;;;5034877;28;20026;-59
2021/09/17 13:05:04;;;;;;;2.50;1.95;;;;;;;;;;5016952;28;20392;-60
2021/09/17 13:07:30;;;;;;;2.88;2.05;;;;;;;;;;5016669;28;20026;-59
2021/09/17 13:09:56;;;;;;;5.47;2.60;;;;;;;;;;5033779;28;20128;-59
2021/09/17 13:12:22;;;;;;;2.47;1.70;;;;;;;;;;5034547;28;20029;-59
2021/09/17 13:14:48;;;;;;;2.65;1.95;;;;;;;;;;5034926;28;20449;-59
2021/09/17 13:17:14;;;;;;;1.98;1.52;;;;;;;;;;5017487;28;20025;-59
2021/09/17 13:19:40;;;;;;;3.05;1.98;;;;;;;;;;5034814;28;20025;-60
2021/09/17 13:22:07;;;;;;;2.85;2.03;;;;;;;;;;5034281;28;20079;-59
2021/09/17 13:24:33;;;;;;;3.30;2.30;;;;;;;;;;5034807;28;20018;-60
2021/09/17 13:26:58;;;;;;;2.22;1.27;;;;;;;;;;5016350;28;20525;-59
2021/09/17 13:29:24;;;;;;;2.08;1.40;;;;;;;;;;5034362;28;20032;-60
2021/09/17 13:31:51;;;;;;;2.60;2.00;;;;;;;;;;5034314;28;20037;-60
2021/09/17 13:34:17;;;;;;;4.95;2.10;;;;;;;;;;5017072;28;20040;-59
2021/09/17 13:36:43;;;;;;;8.85;2.22;;;;;;;;;;5033655;28;20022;-59
2021/09/17 13:39:11;;;;;;;2.53;1.67;;;;;;;;;;5033918;28;20061;-60
2021/09/17 13:41:37;;;;;;;2.97;1.58;;;;;;;;;;5016950;28;20056;-60
2021/09/17 13:44:03;;;;;;;2.83;1.77;;;;;;;;;;5016740;28;20112;-60
2021/09/17 13:46:29;;;;;;;2.50;1.83;;;;;;;;;;5034004;28;20039;-60
2021/09/17 13:48:58;;;;;;;6.70;2.08;;;;;;;;;;5033904;28;20029;-59
2021/09/17 13:51:24;;;;;;;4.00;1.80;;;;;;;;;;5034564;28;20029;-59
2021/09/17 13:53:50;;;;;;;3.85;2.00;;;;;;;;;;5034096;28;20037;-59
2021/09/17 13:56:16;;;;;;;2.40;1.50;;;;;;;;;;5016244;28;20025;-59
2021/09/17 13:58:42;;;;;;;2.60;1.70;;;;;;;;;;5033801;28;20507;-59
2021/09/17 14:01:10;;;;;;;3.20;1.80;;;;;;;;;;5016243;28;20088;-60
2021/09/17 14:03:36;;;;;;;2.85;1.75;;;;;;;;;;5034024;28;20104;-60
2021/09/17 14:06:02;;;;;;;2.33;1.55;;;;;;;;;;5033388;28;20480;-60
2021/09/17 14:08:31;;;;;;;3.83;2.10;;;;;;;;;;5033843;28;20025;-60
2021/09/17 14:10:57;;;;;;;2.60;1.88;;;;;;;;;;5016065;28;20021;-58
2021/09/17 14:13:23;;;;;;;4.30;1.60;;;;;;;;;;5033460;28;20076;-58
2021/09/17 14:15:49;;;;;;;2.75;1.50;;;;;;;;;;5034351;28;20025;-57
2021/09/17 14:18:20;;;;;;;3.10;2.08;;;;;;;;;;5033670;28;20517;-58
2021/09/17 14:20:46;;;;;;;3.25;2.70;;;;;;;;;;5036126;28;20104;-58
2021/09/17 14:23:15;;;;;;;7.85;3.00;;;;;;;;;;5038401;28;20403;-58
2021/09/17 14:25:41;;;;;;;2.90;2.10;;;;;;;;;;5037613;28;20029;-60
2021/09/17 14:28:10;;;;;;;3.78;2.95;;;;;;;;;;5037626;28;20537;-58
2021/09/17 14:30:36;;;;;;;3.30;2.58;;;;;;;;;;5019680;28;20029;-58
2021/09/17 14:33:03;;;;;;;3.22;2.50;;;;;;;;;;5037621;28;20056;-58
2021/09/17 14:35:29;;;;;;;3.70;2.78;;;;;;;;;;5037522;28;20033;-58
2021/09/17 14:37:56;;;;;;;4.90;3.22;;;;;;;;;;5019819;28;20112;-58
2021/09/17 14:40:22;;;;;;;9.38;3.15;;;;;;;;;;5037571;28;20076;-58
2021/09/17 14:42:48;;;;;;;4.15;2.75;;;;;;;;;;5037539;28;20032;-58
2021/09/17 14:45:14;;;;;;;3.65;2.85;;;;;;;;;;5037269;28;20426;-58
2021/09/17 14:47:40;;;;;;;5.30;2.95;;;;;;;;;;5036977;28;20018;-58